Time;durP1;ratioP1;P1;durP2;ratioP2;P2;SDS_P1;SDS_P2;PMS_P1;PMS_P2;Temp;Humidity;BMP_temperature;BMP_pressure;BME280_temperature;BME280_humidity;BME280_pressure;Samples;Min_cycle;Max_cycle;Signal;HPM_P1;HPM_P2
2021/09/08 00:00:51;;;;;;;0.32;0.32;;;15.30;99.90;;;;;;4992581;28;20516;-74
2021/09/08 00:03:16;;;;;;;0.20;0.20;;;15.20;99.90;;;;;;4992572;28;20441;-73
2021/09/08 00:05:42;;;;;;;0.52;0.52;;;15.10;99.90;;;;;;4975283;28;20371;-73
2021/09/08 00:08:08;;;;;;;0.40;0.40;;;14.90;99.90;;;;;;4992395;28;20092;-73
2021/09/08 00:10:34;;;;;;;0.20;0.20;;;14.60;99.90;;;;;;4975137;28;20026;-73
2021/09/08 00:13:00;;;;;;;0.20;0.20;;;14.40;99.90;;;;;;4992651;28;20126;-73
2021/09/08 00:15:26;;;;;;;0.20;0.20;;;14.50;99.90;;;;;;4975502;28;20082;-73
2021/09/08 00:17:51;;;;;;;0.20;0.20;;;14.60;99.90;;;;;;4992690;28;20462;-73
2021/09/08 00:20:17;;;;;;;0.13;0.13;;;14.50;99.90;;;;;;4992447;28;20512;-73
2021/09/08 00:22:44;;;;;;;0.10;0.10;;;14.50;99.90;;;;;;4975116;28;20027;-73
2021/09/08 00:25:11;;;;;;;0.20;0.20;;;14.60;99.90;;;;;;4992416;28;20027;-73
2021/09/08 00:27:37;;;;;;;1.70;1.60;;;14.50;99.90;;;;;;4992361;28;20058;-73
2021/09/08 00:30:05;;;;;;;0.90;0.63;;;14.30;99.90;;;;;;4974784;28;20035;-73
2021/09/08 00:32:30;;;;;;;1.05;1.05;;;14.20;99.90;;;;;;4992384;28;20027;-73
2021/09/08 00:34:56;;;;;;;2.28;0.95;;;14.20;99.90;;;;;;4992216;28;20035;-73
2021/09/08 00:37:22;;;;;;;0.63;0.63;;;14.20;99.90;;;;;;4992547;28;20356;-73
2021/09/08 00:39:48;;;;;;;3.80;1.38;;;14.30;99.90;;;;;;4958682;28;20026;-73
2021/09/08 00:42:16;;;;;;;0.40;0.40;;;14.30;99.90;;;;;;4958629;28;20025;-73
2021/09/08 00:48:23;;;;;;;5.72;0.63;;;14.20;99.90;;;;;;4992264;28;20097;-76
2021/09/08 00:50:50;;;;;;;0.10;0.10;;;14.00;99.90;;;;;;4974635;28;20493;-75
2021/09/08 00:53:18;;;;;;;0.45;0.45;;;13.80;99.90;;;;;;4958528;28;20497;-75
2021/09/08 00:55:45;;;;;;;0.10;0.10;;;13.80;99.90;;;;;;4991777;28;20117;-75
2021/09/08 00:58:11;;;;;;;0.40;0.40;;;13.80;99.90;;;;;;4958517;28;20485;-76
2021/09/08 01:00:37;;;;;;;0.20;0.20;;;13.80;99.90;;;;;;4997044;23;20046;-73
2021/09/08 01:03:04;;;;;;;1.30;0.68;;;13.70;99.90;;;;;;4994208;28;20037;-74
2021/09/08 01:05:29;;;;;;;0.20;0.20;;;13.70;99.90;;;;;;4994294;28;20037;-74
2021/09/08 01:07:56;;;;;;;0.15;0.15;;;13.50;99.90;;;;;;5015164;28;20026;-74
2021/09/08 01:10:27;;;;;;;0.20;0.20;;;13.60;99.90;;;;;;5014999;28;20561;-74
2021/09/08 01:12:52;;;;;;;0.20;0.20;;;13.80;99.90;;;;;;4997485;28;20026;-74
2021/09/08 01:15:18;;;;;;;0.15;0.15;;;14.00;99.90;;;;;;5014729;28;20056;-74
2021/09/08 01:17:44;;;;;;;0.10;0.10;;;14.20;99.90;;;;;;4997417;28;20389;-74
2021/09/08 01:20:12;;;;;;;0.20;0.20;;;14.20;99.90;;;;;;5014776;28;20022;-74
2021/09/08 01:22:53;;;;;;;0.20;0.20;;;14.30;99.90;;;;;;4997500;28;20018;-73
2021/09/08 01:25:24;;;;;;;0.30;0.30;;;14.40;99.90;;;;;;4997093;28;20073;-74
2021/09/08 01:27:52;;;;;;;0.15;0.15;;;14.20;99.90;;;;;;5014753;28;20072;-74
2021/09/08 01:30:20;;;;;;;0.20;0.20;;;14.10;99.90;;;;;;5014569;28;20088;-74
2021/09/08 01:32:47;;;;;;;0.10;0.10;;;14.10;99.90;;;;;;5014606;28;20033;-74
2021/09/08 01:35:13;;;;;;;0.22;0.22;;;14.00;99.90;;;;;;4996904;28;20501;-73
2021/09/08 01:37:39;;;;;;;0.20;0.20;;;14.00;99.90;;;;;;4980749;28;20469;-74
2021/09/08 01:40:06;;;;;;;0.10;0.10;;;14.00;99.90;;;;;;5014267;28;20022;-74
2021/09/08 01:42:32;;;;;;;0.20;0.20;;;14.10;99.90;;;;;;4996819;28;20069;-74
2021/09/08 01:44:58;;;;;;;0.20;0.20;;;14.30;99.90;;;;;;5014311;28;20198;-73
2021/09/08 01:47:24;;;;;;;0.10;0.10;;;14.50;99.90;;;;;;4996669;28;20564;-74
2021/09/08 01:49:49;;;;;;;0.22;0.22;;;14.40;99.90;;;;;;5014266;28;20034;-73
2021/09/08 01:52:15;;;;;;;0.10;0.10;;;14.40;99.90;;;;;;5014194;28;20022;-74
2021/09/08 01:54:41;;;;;;;0.40;0.40;;;14.50;99.90;;;;;;5014052;28;20041;-74
2021/09/08 01:57:07;;;;;;;0.10;0.10;;;14.50;99.90;;;;;;5014043;28;20025;-74
2021/09/08 01:59:32;;;;;;;0.50;0.50;;;14.50;99.90;;;;;;5014038;28;20057;-74
2021/09/08 02:01:58;;;;;;;0.17;0.17;;;14.30;99.90;;;;;;5014008;28;20109;-74
2021/09/08 02:04:24;;;;;;;0.10;0.10;;;14.30;99.90;;;;;;4996333;28;20049;-74
2021/09/08 02:06:52;;;;;;;0.10;0.10;;;14.20;99.90;;;;;;4980167;28;20028;-74
2021/09/08 02:09:19;;;;;;;1.58;1.48;;;14.30;99.90;;;;;;4996412;28;20128;-74
2021/09/08 02:11:45;;;;;;;0.20;0.20;;;14.30;99.90;;;;;;4996193;28;20018;-74
2021/09/08 02:14:11;;;;;;;0.17;0.17;;;14.20;99.90;;;;;;5014020;28;20026;-74
2021/09/08 02:16:37;;;;;;;2.88;2.75;;;14.10;99.90;;;;;;5013599;28;20021;-74
2021/09/08 02:19:03;;;;;;;1.52;0.95;;;13.80;99.90;;;;;;5012736;28;20033;-73
2021/09/08 02:21:30;;;;;;;0.25;0.25;;;13.70;99.90;;;;;;5013606;28;20022;-74
2021/09/08 02:23:56;;;;;;;1.95;1.48;;;13.40;99.90;;;;;;5013902;28;20026;-74
2021/09/08 02:26:22;;;;;;;0.22;0.22;;;13.60;99.90;;;;;;4979744;28;20058;-74
2021/09/08 02:28:48;;;;;;;0.20;0.20;;;13.70;99.90;;;;;;4995927;28;20117;-74
2021/09/08 02:31:14;;;;;;;0.15;0.15;;;13.70;99.90;;;;;;5013698;28;20033;-74
2021/09/08 02:33:40;;;;;;;0.10;0.10;;;13.50;99.90;;;;;;4995862;28;20080;-74
2021/09/08 02:36:06;;;;;;;0.10;0.10;;;13.20;99.90;;;;;;4995833;28;20053;-74
2021/09/08 02:38:33;;;;;;;0.30;0.30;;;13.10;99.90;;;;;;4996237;28;20120;-75
2021/09/08 02:41:00;;;;;;;0.20;0.20;;;13.20;99.90;;;;;;5013926;28;20226;-75
2021/09/08 02:43:27;;;;;;;0.52;0.52;;;13.40;99.90;;;;;;4996645;28;20034;-75
2021/09/08 02:45:53;;;;;;;0.20;0.20;;;13.60;99.90;;;;;;4995832;28;20083;-75
2021/09/08 02:48:19;;;;;;;0.13;0.13;;;13.60;99.90;;;;;;4996051;28;20030;-75
2021/09/08 02:50:44;;;;;;;2.83;2.25;;;13.70;99.90;;;;;;5013860;28;20030;-75
2021/09/08 02:53:10;;;;;;;0.20;0.20;;;13.70;99.90;;;;;;5013622;28;20156;-75
2021/09/08 02:55:36;;;;;;;0.25;0.25;;;13.70;99.90;;;;;;5013580;28;20055;-75
2021/09/08 02:58:02;;;;;;;0.10;0.10;;;13.60;99.90;;;;;;5013738;28;20026;-75
2021/09/08 03:00:28;;;;;;;0.50;0.50;;;13.40;99.90;;;;;;4996414;28;20104;-75
2021/09/08 03:02:53;;;;;;;0.20;0.20;;;13.40;99.90;;;;;;5013484;28;20030;-75
2021/09/08 03:05:19;;;;;;;0.20;0.20;;;13.60;99.90;;;;;;5013485;28;20533;-75
2021/09/08 03:07:45;;;;;;;0.10;0.10;;;13.70;99.90;;;;;;5013618;28;20022;-75
2021/09/08 03:10:11;;;;;;;6.72;1.05;;;13.80;99.90;;;;;;4995915;28;20068;-75
2021/09/08 03:12:37;;;;;;;0.40;0.40;;;13.70;99.90;;;;;;4995756;28;20030;-75
2021/09/08 03:15:05;;;;;;;0.13;0.13;;;13.70;99.90;;;;;;5013135;28;20061;-75
2021/09/08 03:17:30;;;;;;;0.28;0.28;;;13.60;99.90;;;;;;4995754;28;20030;-75
2021/09/08 03:19:56;;;;;;;0.20;0.20;;;13.50;99.90;;;;;;4995650;28;20398;-75
2021/09/08 03:22:22;;;;;;;0.20;0.20;;;13.50;99.90;;;;;;5013267;28;20064;-75
2021/09/08 03:24:48;;;;;;;0.20;0.20;;;13.40;99.90;;;;;;5013311;28;20045;-75
2021/09/08 03:27:14;;;;;;;0.10;0.10;;;13.30;99.90;;;;;;5013029;28;20083;-75
2021/09/08 03:29:40;;;;;;;0.13;0.13;;;13.40;99.90;;;;;;5012948;28;20022;-74
2021/09/08 03:32:06;;;;;;;0.35;0.35;;;13.40;99.90;;;;;;4995418;28;20080;-75
2021/09/08 03:34:31;;;;;;;0.20;0.20;;;13.40;99.90;;;;;;4995319;28;20485;-75
2021/09/08 03:36:57;;;;;;;0.20;0.20;;;13.40;99.90;;;;;;4995733;28;20022;-75
2021/09/08 03:39:23;;;;;;;0.17;0.17;;;13.50;99.90;;;;;;5013191;28;20030;-75
2021/09/08 03:41:48;;;;;;;0.20;0.20;;;13.50;99.90;;;;;;4995577;28;20112;-75
2021/09/08 03:44:14;;;;;;;0.20;0.20;;;13.60;99.90;;;;;;5013159;28;20030;-75
2021/09/08 03:46:40;;;;;;;0.20;0.20;;;13.40;99.90;;;;;;4995169;28;20041;-75
2021/09/08 03:49:05;;;;;;;0.30;0.30;;;13.40;99.90;;;;;;4979230;28;20064;-75
2021/09/08 03:51:31;;;;;;;0.20;0.20;;;13.30;99.90;;;;;;4995278;28;20022;-75
2021/09/08 03:53:58;;;;;;;0.88;0.88;;;13.30;99.90;;;;;;5013052;28;20018;-75
2021/09/08 03:56:25;;;;;;;0.20;0.20;;;13.50;99.90;;;;;;4994990;28;20121;-75
2021/09/08 03:58:52;;;;;;;0.20;0.20;;;13.60;99.90;;;;;;5012860;28;20030;-75
2021/09/08 04:01:18;;;;;;;1.85;0.55;;;13.50;99.90;;;;;;5012787;28;20107;-75
2021/09/08 04:03:47;;;;;;;1.60;1.55;;;13.70;99.90;;;;;;5012760;28;20031;-74
2021/09/08 04:06:13;;;;;;;0.20;0.20;;;13.90;99.90;;;;;;5012721;28;20026;-75
2021/09/08 04:08:39;;;;;;;0.20;0.20;;;14.00;99.90;;;;;;5012545;28;20083;-75
2021/09/08 04:11:05;;;;;;;0.10;0.10;;;14.00;99.90;;;;;;4995248;28;20121;-75
2021/09/08 04:13:30;;;;;;;0.15;0.15;;;14.10;99.90;;;;;;4979145;28;20022;-75
2021/09/08 04:15:56;;;;;;;0.20;0.20;;;14.30;99.90;;;;;;5012388;28;20038;-75
2021/09/08 04:18:22;;;;;;;0.10;0.10;;;14.40;99.90;;;;;;4994851;28;20068;-75
2021/09/08 04:20:48;;;;;;;0.20;0.20;;;14.40;99.90;;;;;;5012777;28;20026;-75
2021/09/08 04:23:13;;;;;;;0.10;0.10;;;14.60;99.90;;;;;;5012248;28;20022;-75
2021/09/08 04:25:40;;;;;;;0.10;0.10;;;14.60;99.90;;;;;;4994780;28;20544;-75
2021/09/08 04:28:06;;;;;;;0.60;0.60;;;14.40;99.90;;;;;;5012365;28;20426;-75
2021/09/08 04:30:32;;;;;;;0.20;0.20;;;14.30;99.90;;;;;;5012528;28;20045;-75
2021/09/08 04:32:58;;;;;;;0.10;0.10;;;14.00;99.90;;;;;;4995018;28;20048;-75
2021/09/08 04:35:24;;;;;;;0.10;0.10;;;14.10;99.90;;;;;;5012119;28;20038;-75
2021/09/08 04:37:50;;;;;;;0.20;0.20;;;14.20;99.90;;;;;;4994704;28;20081;-75
2021/09/08 04:40:15;;;;;;;0.13;0.13;;;14.00;99.90;;;;;;5012562;28;20026;-75
2021/09/08 04:42:42;;;;;;;0.65;0.65;;;13.90;99.90;;;;;;4998598;28;20022;-75
2021/09/08 04:45:08;;;;;;;1.55;1.15;;;13.70;99.90;;;;;;5016348;28;20030;-75
2021/09/08 04:47:34;;;;;;;1.30;1.27;;;13.40;99.90;;;;;;5016407;28;20105;-75
2021/09/08 04:50:00;;;;;;;0.20;0.20;;;13.20;99.90;;;;;;5016117;28;20572;-75
2021/09/08 04:52:25;;;;;;;0.20;0.20;;;13.40;99.90;;;;;;5014258;28;20049;-75
2021/09/08 04:54:51;;;;;;;0.60;0.60;;;13.40;99.90;;;;;;4996567;28;20021;-75
2021/09/08 04:57:17;;;;;;;0.55;0.55;;;13.20;99.90;;;;;;4997164;28;20032;-74
2021/09/08 04:59:43;;;;;;;0.10;0.10;;;13.20;99.90;;;;;;5018706;28;20169;-75
2021/09/08 05:02:09;;;;;;;0.20;0.20;;;13.00;99.90;;;;;;5015277;28;20018;-75
2021/09/08 05:04:35;;;;;;;0.60;0.60;;;13.20;99.90;;;;;;5014432;28;20026;-75
2021/09/08 05:07:00;;;;;;;3.17;1.33;;;13.50;99.90;;;;;;5014492;28;20037;-75
2021/09/08 05:09:26;;;;;;;1.25;0.82;;;13.50;99.90;;;;;;4999139;28;20018;-75
2021/09/08 05:11:52;;;;;;;2.60;2.40;;;13.50;99.90;;;;;;5014704;28;20026;-75
2021/09/08 05:14:18;;;;;;;0.20;0.20;;;13.50;99.90;;;;;;5000523;28;20037;-74
2021/09/08 05:16:44;;;;;;;0.28;0.28;;;13.40;99.90;;;;;;5014739;28;20078;-75
2021/09/08 05:19:10;;;;;;;0.20;0.20;;;13.30;99.90;;;;;;5014378;28;20057;-75
2021/09/08 05:21:36;;;;;;;0.20;0.20;;;13.40;99.90;;;;;;5014509;28;20034;-75
2021/09/08 05:24:01;;;;;;;0.20;0.20;;;13.40;99.90;;;;;;5016331;28;20477;-75
2021/09/08 05:26:27;;;;;;;0.20;0.20;;;13.30;99.90;;;;;;5014260;28;20033;-75
2021/09/08 05:28:53;;;;;;;0.28;0.28;;;13.20;99.90;;;;;;5013796;28;20107;-75
2021/09/08 05:31:19;;;;;;;0.47;0.47;;;13.30;99.90;;;;;;4997619;28;20104;-75
2021/09/08 05:33:44;;;;;;;0.20;0.20;;;13.30;99.90;;;;;;5014234;28;20445;-75
2021/09/08 05:36:10;;;;;;;0.20;0.20;;;13.10;99.90;;;;;;5014939;28;20664;-75
2021/09/08 05:38:36;;;;;;;1.20;1.10;;;13.40;99.90;;;;;;5014674;28;20021;-75
2021/09/08 05:41:05;;;;;;;3.00;2.05;;;13.60;99.90;;;;;;5014272;28;20026;-75
2021/09/08 05:43:32;;;;;;;0.50;0.50;;;13.40;99.90;;;;;;5014480;28;20022;-75
2021/09/08 05:45:58;;;;;;;1.45;0.90;;;13.40;99.90;;;;;;5015800;28;20026;-75
2021/09/08 05:48:24;;;;;;;0.20;0.20;;;13.40;99.90;;;;;;5014026;28;20033;-75
2021/09/08 05:50:50;;;;;;;0.15;0.15;;;13.40;99.90;;;;;;5000475;28;20521;-75
2021/09/08 05:53:15;;;;;;;0.10;0.10;;;13.40;99.90;;;;;;5016058;28;20036;-73
2021/09/08 05:55:41;;;;;;;0.65;0.65;;;13.40;99.90;;;;;;5031464;28;20057;-72
2021/09/08 05:58:07;;;;;;;0.20;0.20;;;13.50;99.90;;;;;;5033694;28;20112;-73
2021/09/08 06:00:33;;;;;;;0.20;0.20;;;13.70;99.90;;;;;;5033518;28;20036;-73
2021/09/08 06:02:58;;;;;;;0.15;0.15;;;13.70;99.90;;;;;;5015413;28;20058;-73
2021/09/08 06:05:24;;;;;;;0.20;0.20;;;13.90;99.90;;;;;;5009829;28;20022;-73
2021/09/08 06:07:50;;;;;;;0.20;0.20;;;13.90;99.90;;;;;;5033213;28;20029;-73
2021/09/08 06:10:20;;;;;;;0.10;0.10;;;14.00;99.90;;;;;;5031518;28;20124;-72
2021/09/08 06:13:00;;;;;;;0.52;0.52;;;14.10;99.90;;;;;;5033337;28;20021;-73
2021/09/08 06:15:26;;;;;;;1.17;1.08;;;14.30;99.90;;;;;;5011940;28;20036;-74
2021/09/08 06:17:51;;;;;;;0.50;0.50;;;14.20;99.90;;;;;;5009128;28;20081;-73
2021/09/08 06:20:18;;;;;;;11.20;1.48;;;14.20;99.90;;;;;;5013419;28;20026;-73
2021/09/08 06:22:43;;;;;;;0.08;0.08;;;14.30;99.90;;;;;;5013431;28;20026;-73
2021/09/08 06:25:10;;;;;;;1.75;1.65;;;14.50;99.90;;;;;;5013335;28;20088;-74
2021/09/08 06:27:36;;;;;;;0.20;0.20;;;14.70;99.90;;;;;;5013200;28;20053;-73
2021/09/08 06:30:04;;;;;;;0.30;0.30;;;14.60;99.90;;;;;;5012950;28;20042;-73
2021/09/08 06:32:30;;;;;;;0.35;0.35;;;14.50;99.90;;;;;;4995662;28;20053;-74
2021/09/08 06:34:56;;;;;;;0.30;0.22;;;14.70;99.90;;;;;;5012997;28;20072;-74
2021/09/08 06:37:22;;;;;;;3.53;1.85;;;14.70;99.90;;;;;;5012929;28;20045;-73
2021/09/08 06:39:47;;;;;;;0.10;0.10;;;14.80;99.90;;;;;;5012966;28;20030;-73
2021/09/08 06:42:13;;;;;;;0.10;0.10;;;15.00;99.90;;;;;;5013025;28;20029;-73
2021/09/08 06:44:39;;;;;;;1.33;1.25;;;15.10;99.90;;;;;;4995072;28;20400;-73
2021/09/08 06:47:05;;;;;;;0.32;0.25;;;15.20;99.90;;;;;;5013029;28;20026;-73
2021/09/08 06:49:30;;;;;;;0.65;0.65;;;15.30;99.90;;;;;;5012598;28;20097;-73
2021/09/08 06:51:56;;;;;;;0.10;0.10;;;15.50;99.90;;;;;;5012880;28;20538;-73
2021/09/08 06:54:22;;;;;;;0.22;0.22;;;15.50;99.90;;;;;;4994799;28;20049;-73
2021/09/08 06:56:47;;;;;;;2.55;1.60;;;15.40;99.90;;;;;;4995096;28;20018;-74
2021/09/08 06:59:13;;;;;;;0.10;0.10;;;15.50;99.90;;;;;;5012594;28;20073;-74
2021/09/08 07:01:39;;;;;;;0.28;0.28;;;15.50;99.90;;;;;;5014146;28;20037;-78
2021/09/08 07:04:05;;;;;;;1.00;0.40;;;15.50;99.90;;;;;;5015294;28;20025;-77
2021/09/08 07:06:30;;;;;;;0.13;0.13;;;15.50;99.90;;;;;;4997239;28;20080;-78
2021/09/08 07:08:56;;;;;;;0.28;0.28;;;15.50;99.90;;;;;;4997930;28;20036;-77
2021/09/08 07:11:22;;;;;;;0.10;0.10;;;15.50;99.90;;;;;;5011027;28;20049;-78
2021/09/08 07:13:48;;;;;;;2.67;0.90;;;15.70;99.90;;;;;;5035835;28;20033;-78
2021/09/08 07:16:14;;;;;;;0.10;0.10;;;15.60;99.90;;;;;;5017776;28;20396;-78
2021/09/08 07:18:40;;;;;;;0.20;0.20;;;15.60;99.90;;;;;;5035955;28;20093;-78
2021/09/08 07:21:06;;;;;;;0.10;0.10;;;15.40;99.90;;;;;;5035584;28;20520;-78
2021/09/08 07:23:32;;;;;;;2.22;1.58;;;15.50;99.90;;;;;;5018211;28;20029;-78
2021/09/08 07:25:57;;;;;;;0.10;0.10;;;15.60;99.90;;;;;;5018221;28;20163;-78
2021/09/08 07:28:23;;;;;;;0.10;0.10;;;15.90;99.90;;;;;;5018843;28;20064;-78
2021/09/08 07:30:53;;;;;;;0.10;0.10;;;16.10;99.90;;;;;;5018880;28;20491;-77
2021/09/08 07:33:24;;;;;;;0.32;0.32;;;16.30;99.90;;;;;;5036713;28;20029;-78
2021/09/08 07:35:50;;;;;;;0.10;0.10;;;16.40;99.90;;;;;;5018865;28;20160;-77
2021/09/08 07:38:18;;;;;;;0.15;0.15;;;16.30;99.90;;;;;;5019207;28;20025;-78
2021/09/08 07:40:44;;;;;;;0.55;0.52;;;16.50;99.90;;;;;;5035818;28;20026;-77
2021/09/08 07:43:10;;;;;;;0.43;0.43;;;16.60;99.90;;;;;;5019177;28;20481;-78
2021/09/08 07:45:36;;;;;;;0.10;0.10;;;16.60;99.90;;;;;;5018509;28;20489;-78
2021/09/08 07:48:02;;;;;;;0.10;0.10;;;16.70;99.90;;;;;;5002237;28;20033;-78
2021/09/08 07:50:28;;;;;;;0.13;0.13;;;16.90;99.90;;;;;;5035350;28;20022;-77
2021/09/08 07:52:54;;;;;;;0.60;0.60;;;17.00;99.90;;;;;;5018190;28;20025;-78
2021/09/08 07:55:20;;;;;;;0.25;0.25;;;17.00;99.90;;;;;;5035157;28;20025;-78
2021/09/08 07:57:45;;;;;;;0.10;0.10;;;17.10;99.90;;;;;;5035573;28;20038;-77
2021/09/08 08:00:12;;;;;;;0.20;0.20;;;17.20;99.90;;;;;;5035415;28;20036;-78
2021/09/08 08:02:51;;;;;;;0.40;0.40;;;17.10;99.90;;;;;;5017669;28;20040;-79
2021/09/08 08:05:18;;;;;;;0.20;0.20;;;17.20;99.90;;;;;;5035057;28;20025;-79
2021/09/08 08:07:45;;;;;;;0.20;0.20;;;17.30;99.90;;;;;;5035371;28;20033;-79
2021/09/08 08:10:11;;;;;;;0.10;0.10;;;17.40;99.90;;;;;;5001618;28;20026;-78
2021/09/08 08:12:37;;;;;;;4.82;1.33;;;17.70;99.90;;;;;;4982145;28;20117;-78
2021/09/08 08:15:05;;;;;;;0.63;0.43;;;17.80;99.90;;;;;;4998034;28;20053;-78
2021/09/08 08:17:30;;;;;;;0.10;0.10;;;18.00;99.90;;;;;;5019468;28;20112;-77
2021/09/08 08:19:56;;;;;;;0.00;0.00;;;18.30;99.90;;;;;;5019971;28;20029;-78
2021/09/08 08:22:22;;;;;;;0.73;0.73;;;18.60;99.90;;;;;;4986641;28;20026;-78
2021/09/08 08:24:48;;;;;;;5.22;1.33;;;18.80;99.90;;;;;;4986227;28;20508;-78
2021/09/08 08:27:14;;;;;;;0.50;0.50;;;18.90;99.90;;;;;;4985869;28;20030;-78
2021/09/08 08:29:40;;;;;;;0.10;0.10;;;18.90;99.90;;;;;;5002091;28;20084;-78
2021/09/08 08:32:06;;;;;;;0.30;0.30;;;19.10;99.90;;;;;;5020181;28;20037;-79
2021/09/08 08:34:32;;;;;;;0.10;0.10;;;19.30;99.90;;;;;;5019780;28;20029;-79
2021/09/08 08:36:57;;;;;;;0.03;0.03;;;19.60;99.90;;;;;;5019961;28;20029;-78
2021/09/08 08:39:24;;;;;;;0.17;0.17;;;19.80;99.90;;;;;;5019940;28;20084;-78
2021/09/08 08:41:50;;;;;;;0.80;0.80;;;20.10;99.90;;;;;;5002366;28;20124;-78
2021/09/08 08:44:22;;;;;;;0.82;0.82;;;20.40;99.90;;;;;;4986360;28;20022;-78
2021/09/08 08:46:48;;;;;;;0.35;0.35;;;20.60;99.90;;;;;;5002187;28;20036;-78
2021/09/08 08:49:14;;;;;;;0.20;0.20;;;20.80;99.90;;;;;;5061164;22;20707;-93
2021/09/08 08:51:40;;;;;;;0.10;0.10;;;20.90;99.90;;;;;;4978802;28;20101;-93
2021/09/08 08:54:05;;;;;;;1.02;1.02;;;21.10;99.90;;;;;;4976610;28;20026;-93
2021/09/08 08:56:31;;;;;;;0.22;0.22;;;21.30;99.90;;;;;;4982777;28;20042;-93
2021/09/08 08:58:57;;;;;;;0.13;0.13;;;21.50;97.60;;;;;;4986404;28;20042;-95
2021/09/08 09:01:36;;;;;;;2.72;1.20;;;21.80;97.20;;;;;;4984064;28;20021;-95
2021/09/08 09:04:19;;;;;;;2.28;1.25;;;22.00;94.40;;;;;;5000879;28;20070;-95
2021/09/08 09:06:50;;;;;;;0.10;0.10;;;22.10;94.00;;;;;;4988331;28;20044;-96
2021/09/08 09:09:19;;;;;;;1.35;0.80;;;22.00;94.50;;;;;;4987930;28;20025;-95
2021/09/08 09:11:49;;;;;;;15.70;2.40;;;22.20;93.70;;;;;;4985785;28;20030;-95
2021/09/08 09:14:17;;;;;;;0.10;0.10;;;22.40;91.90;;;;;;4985795;28;20038;-95
2021/09/08 09:16:43;;;;;;;1.50;1.40;;;22.80;91.60;;;;;;4985936;28;20038;-96
2021/09/08 09:20:07;;;;;;;;;;;;;;;;;;;;;
2021/09/08 09:22:49;;;;;;;0.10;0.10;;;23.60;87.80;;;;;;4967200;28;20026;-95
2021/09/08 09:25:24;;;;;;;0.10;0.10;;;24.10;86.70;;;;;;4985930;28;20014;-95
2021/09/08 09:27:54;;;;;;;0.10;0.10;;;24.10;85.60;;;;;;4992715;23;21216;-74
2021/09/08 09:30:23;;;;;;;0.30;0.30;;;24.30;84.40;;;;;;4991430;28;20022;-73
2021/09/08 09:32:51;;;;;;;1.67;0.77;;;24.70;80.90;;;;;;4976291;28;20117;-73
2021/09/08 09:35:19;;;;;;;2.28;1.38;;;24.90;76.80;;;;;;4993752;28;20066;-71
2021/09/08 09:37:50;;;;;;;2.00;1.58;;;25.00;77.40;;;;;;4978910;28;20034;-73
2021/09/08 09:40:21;;;;;;;1.08;1.08;;;24.80;76.60;;;;;;4993673;28;20093;-73
2021/09/08 09:42:47;;;;;;;1.20;1.20;;;24.60;77.20;;;;;;4991962;28;20034;-73
2021/09/08 09:45:14;;;;;;;0.90;0.55;;;25.00;76.30;;;;;;4993448;28;20034;-74
2021/09/08 09:47:43;;;;;;;0.88;0.77;;;25.30;72.10;;;;;;4992142;28;20022;-73
2021/09/08 09:50:17;;;;;;;0.10;0.10;;;25.50;71.40;;;;;;4993296;28;20493;-74
2021/09/08 09:52:52;;;;;;;0.22;0.22;;;25.90;71.00;;;;;;4990384;28;20128;-75
2021/09/08 09:55:19;;;;;;;0.25;0.25;;;25.80;68.90;;;;;;4993206;28;20795;-75
2021/09/08 09:57:45;;;;;;;0.20;0.17;;;26.20;68.20;;;;;;4993026;28;20186;-73
2021/09/08 10:00:13;;;;;;;1.10;0.80;;;26.60;66.80;;;;;;4991938;28;20540;-73
2021/09/08 10:02:40;;;;;;;0.43;0.30;;;26.70;65.80;;;;;;4987735;28;20108;-74
2021/09/08 10:05:06;;;;;;;0.25;0.25;;;26.90;65.10;;;;;;4991943;28;20058;-73
2021/09/08 10:07:35;;;;;;;0.45;0.45;;;26.90;64.30;;;;;;4992485;28;20080;-74
2021/09/08 10:10:27;;;;;;;1.10;0.63;;;27.20;63.50;;;;;;4977118;28;20435;-75
2021/09/08 10:13:10;;;;;;;0.15;0.15;;;26.90;62.10;;;;;;4993754;28;20109;-73
2021/09/08 10:15:36;;;;;;;0.65;0.65;;;27.20;61.90;;;;;;4988280;28;20109;-73
2021/09/08 10:18:11;;;;;;;0.75;0.75;;;27.40;61.50;;;;;;4991506;28;20025;-74
2021/09/08 10:20:37;;;;;;;0.45;0.43;;;27.50;59.80;;;;;;4991519;28;20044;-74
2021/09/08 10:23:08;;;;;;;0.13;0.13;;;27.70;59.00;;;;;;4993578;28;20022;-73
2021/09/08 10:25:34;;;;;;;1.35;1.25;;;27.80;58.30;;;;;;4993178;28;20479;-73
2021/09/08 10:28:03;;;;;;;0.08;0.08;;;27.10;59.60;;;;;;4990031;28;20103;-73
2021/09/08 10:30:29;;;;;;;0.00;0.00;;;27.50;59.70;;;;;;4990554;28;20022;-74
2021/09/08 10:32:55;;;;;;;1.33;0.60;;;27.80;58.60;;;;;;4990394;28;20035;-73
2021/09/08 10:35:22;;;;;;;0.63;0.63;;;27.80;59.50;;;;;;4992531;28;20026;-75
2021/09/08 10:37:50;;;;;;;1.55;0.73;;;27.90;58.40;;;;;;4991063;28;20486;-72
2021/09/08 10:55:50;;;;;;;0.95;0.85;;;27.00;91.00;;;;;;3890331;22;20088;-83
2021/09/08 10:58:15;;;;;;;0.20;0.20;;;32.70;57.70;;;;;;4988542;28;20030;-84
2021/09/08 11:00:43;;;;;;;92.13;35.85;;;39.40;38.70;;;;;;5002822;28;20053;-82
2021/09/08 11:03:27;;;;;;;1.02;1.02;;;43.40;41.60;;;;;;5004228;28;20030;-82
2021/09/08 11:05:58;;;;;;;17.67;1.00;;;44.60;30.00;;;;;;4984930;28;20030;-82
2021/09/08 11:08:26;;;;;;;;;;;44.40;28.90;;;;;;4984629;28;20042;-82
2021/09/08 11:11:09;;;;;;;0.45;0.40;;;44.90;28.60;;;;;;4998633;28;19991;-83
2021/09/08 11:13:36;;;;;;;0.90;0.90;;;45.60;27.70;;;;;;4982887;28;20045;-82
2021/09/08 11:16:15;;;;;;;1.80;0.85;;;46.20;27.00;;;;;;4999408;28;20030;-83
2021/09/08 11:18:41;;;;;;;2.70;1.02;;;45.30;28.10;;;;;;4999053;28;20435;-83
2021/09/08 11:21:07;;;;;;;0.22;0.22;;;44.70;28.10;;;;;;5001872;28;20487;-83
2021/09/08 11:23:33;;;;;;;0.38;0.38;;;44.70;28.30;;;;;;4981284;28;20033;-83
2021/09/08 11:26:11;;;;;;;1.10;1.08;;;45.50;27.70;;;;;;4982183;28;20021;-85
2021/09/08 11:28:38;;;;;;;1.83;1.42;;;45.70;27.40;;;;;;4981078;28;20394;-84
2021/09/08 11:31:19;;;;;;;3.17;2.05;;;46.50;26.40;;;;;;4981915;28;20037;-83
2021/09/08 11:33:45;;;;;;;;;;;45.50;26.80;;;;;;5015250;28;20039;-83
2021/09/08 11:36:19;;;;;;;0.30;0.30;;;45.80;27.30;;;;;;4992175;28;19905;-82
2021/09/08 11:38:47;;;;;;;0.28;0.28;;;46.30;26.90;;;;;;4979718;28;20030;-81
2021/09/08 11:41:15;;;;;;;4.38;1.60;;;45.00;27.30;;;;;;4995988;28;20053;-81
2021/09/08 11:43:49;;;;;;;0.03;0.03;;;44.80;28.00;;;;;;5014364;28;20104;-81
2021/09/08 11:46:29;;;;;;;0.17;0.17;;;45.00;27.60;;;;;;4982381;28;20030;-81
2021/09/08 11:49:08;;;;;;;;;;;45.60;26.90;;;;;;4997594;28;20026;-81
2021/09/08 11:51:37;;;;;;;0.28;0.28;;;44.40;27.10;;;;;;4979459;28;19910;-81
2021/09/08 11:54:04;;;;;;;0.80;0.80;;;43.50;28.50;;;;;;4979912;28;20028;-81
2021/09/08 11:56:31;;;;;;;1.15;1.05;;;44.30;27.80;;;;;;4978419;28;20517;-81
2021/09/08 11:59:00;;;;;;;0.00;0.00;;;44.90;27.20;;;;;;4979830;28;20033;-81
2021/09/08 12:01:35;;;;;;;0.10;0.10;;;45.80;26.90;;;;;;4981033;28;20034;-81
2021/09/08 12:04:03;;;;;;;0.08;0.08;;;45.70;27.00;;;;;;5013858;28;20058;-81
2021/09/08 12:06:31;;;;;;;2.63;1.38;;;45.60;26.80;;;;;;4998066;28;20034;-82
2021/09/08 12:08:58;;;;;;;0.70;0.65;;;46.00;26.00;;;;;;4982249;28;20081;-81
2021/09/08 12:11:37;;;;;;;0.47;0.47;;;45.00;27.10;;;;;;5020250;28;20022;-81
2021/09/08 12:14:19;;;;;;;0.13;0.13;;;43.80;27.80;;;;;;4981007;28;20022;-79
2021/09/08 12:16:47;;;;;;;0.22;0.22;;;44.10;28.10;;;;;;4997060;28;20030;-81
2021/09/08 12:19:18;;;;;;;7.40;2.20;;;43.20;28.50;;;;;;4997602;28;20026;-83
2021/09/08 12:21:45;;;;;;;0.15;0.15;;;40.20;30.50;;;;;;4997385;28;20068;-82
2021/09/08 12:24:29;;;;;;;1.20;1.10;;;35.90;36.90;;;;;;4978793;28;20037;-82
2021/09/08 12:26:56;;;;;;;1.75;1.55;;;32.50;43.10;;;;;;4999119;28;20125;-82
2021/09/08 12:29:23;;;;;;;1.15;1.05;;;30.50;46.10;;;;;;4978823;28;20049;-82
2021/09/08 12:31:55;;;;;;;0.20;0.20;;;28.80;48.60;;;;;;4985815;28;20010;-82
2021/09/08 12:34:22;;;;;;;2.08;1.90;;;28.10;50.90;;;;;;5018223;28;20483;-82
2021/09/08 12:36:49;;;;;;;0.00;0.00;;;27.20;53.10;;;;;;4979965;28;20029;-82
2021/09/08 12:39:22;;;;;;;0.70;0.35;;;26.70;55.40;;;;;;4978118;28;20518;-82
2021/09/08 12:42:00;;;;;;;0.25;0.25;;;26.30;56.40;;;;;;4982558;28;20030;-82
2021/09/08 12:44:26;;;;;;;2.42;1.98;;;25.90;57.50;;;;;;4995289;28;20502;-83
2021/09/08 12:46:52;;;;;;;18.92;4.32;;;25.60;57.90;;;;;;4995103;28;20033;-82
2021/09/08 12:49:26;;;;;;;3.63;1.45;;;25.20;58.50;;;;;;4979781;28;20532;-83
2021/09/08 12:51:53;;;;;;;3.50;2.03;;;24.90;59.10;;;;;;4979493;28;20026;-83
2021/09/08 12:54:19;;;;;;;0.55;0.55;;;24.60;60.20;;;;;;4977024;28;20022;-82
2021/09/08 12:56:48;;;;;;;1.40;1.30;;;24.60;61.20;;;;;;4980330;28;20066;-84
2021/09/08 12:59:24;;;;;;;0.80;0.80;;;24.60;61.10;;;;;;4994114;28;20120;-84
2021/09/08 13:01:53;;;;;;;4.47;0.88;;;24.20;61.40;;;;;;4982409;28;20041;-83
2021/09/08 13:04:19;;;;;;;11.32;1.58;;;24.00;62.50;;;;;;4982011;28;20026;-84
2021/09/08 13:06:45;;;;;;;0.25;0.22;;;23.90;63.00;;;;;;4982405;28;20030;-84
2021/09/08 13:09:11;;;;;;;0.70;0.32;;;24.00;63.20;;;;;;4997785;28;20022;-84